createdAt,value
2023-02-19T00:01:11.091Z,99.90
2023-02-19T00:04:19.173Z,99.90
2023-02-19T00:07:21.573Z,99.90
2023-02-19T00:10:23.718Z,99.90
2023-02-19T00:13:25.840Z,99.90
2023-02-19T00:16:33.862Z,99.90
2023-02-19T00:19:36.038Z,99.90
2023-02-19T00:22:38.476Z,99.90
2023-02-19T00:25:40.625Z,99.90
2023-02-19T00:28:42.877Z,99.90
2023-02-19T00:31:45.813Z,99.90
2023-02-19T00:34:48.035Z,99.90
2023-02-19T00:37:50.730Z,99.90
2023-02-19T00:40:53.169Z,99.90
2023-02-19T00:43:57.051Z,99.90
2023-02-19T00:46:59.147Z,99.90
2023-02-19T00:50:01.364Z,99.90
2023-02-19T00:53:03.599Z,99.90
2023-02-19T00:56:06.783Z,99.90
2023-02-19T00:59:09.520Z,99.90
2023-02-19T01:02:11.681Z,99.90
2023-02-19T01:05:13.948Z,99.90
2023-02-19T01:08:16.402Z,99.90
2023-02-19T01:11:18.795Z,99.90
2023-02-19T01:14:20.947Z,99.90
2023-02-19T01:17:23.105Z,99.90
2023-02-19T01:20:26.216Z,99.90
2023-02-19T01:23:28.311Z,99.90
2023-02-19T01:26:32.657Z,99.90
2023-02-19T01:29:34.871Z,99.90
2023-02-19T01:32:37.088Z,99.90
2023-02-19T01:35:39.760Z,99.90
2023-02-19T01:38:42.110Z,99.90
2023-02-19T01:41:44.247Z,99.90
2023-02-19T01:44:46.331Z,99.90
2023-02-19T01:48:02.737Z,99.90
2023-02-19T01:51:11.315Z,99.90
2023-02-19T01:54:16.556Z,99.90
2023-02-19T01:57:26.313Z,99.90
2023-02-19T02:00:28.919Z,99.90
2023-02-19T02:03:31.496Z,99.90
2023-02-19T02:07:24.378Z,99.90
2023-02-19T02:10:26.643Z,99.90
2023-02-19T02:13:29.251Z,99.90
2023-02-19T02:17:03.790Z,99.90
2023-02-19T02:20:14.553Z,99.90
2023-02-19T02:23:20.983Z,99.90
2023-02-19T02:26:51.263Z,99.90
2023-02-19T02:30:22.557Z,99.90
2023-02-19T02:33:39.689Z,99.90
2023-02-19T02:36:48.815Z,99.90
2023-02-19T02:39:52.718Z,99.90
2023-02-19T02:42:58.543Z,99.90
2023-02-19T02:46:00.888Z,99.90
2023-02-19T02:49:06.660Z,99.90
2023-02-19T02:52:29.404Z,99.90
2023-02-19T02:55:37.450Z,99.90
2023-02-19T02:58:41.353Z,99.90
2023-02-19T03:02:07.949Z,99.90
2023-02-19T03:05:37.051Z,99.90
2023-02-19T03:08:55.299Z,99.90
2023-02-19T03:12:20.604Z,99.90
2023-02-19T03:15:46.584Z,99.90
2023-02-19T03:19:12.466Z,99.90
2023-02-19T03:22:20.062Z,99.90
2023-02-19T03:25:44.608Z,99.90
2023-02-19T03:29:08.577Z,99.90
2023-02-19T03:32:28.941Z,99.90
2023-02-19T03:35:34.633Z,99.90
2023-02-19T03:38:45.491Z,99.90
2023-02-19T03:42:07.917Z,99.90
2023-02-19T03:45:24.776Z,99.90
2023-02-19T03:48:35.498Z,99.90
2023-02-19T03:51:44.164Z,99.90
2023-02-19T03:55:03.314Z,99.90
2023-02-19T03:58:30.126Z,99.90
2023-02-19T04:01:45.404Z,99.90
2023-02-19T04:04:56.408Z,99.90
2023-02-19T04:08:06.256Z,99.90
2023-02-19T04:11:10.033Z,99.90
2023-02-19T04:14:29.141Z,99.90
2023-02-19T04:17:37.507Z,99.90
2023-02-19T04:20:46.062Z,99.90
2023-02-19T04:23:49.155Z,99.90
2023-02-19T04:26:52.065Z,99.90
2023-02-19T04:29:54.429Z,99.90
2023-02-19T04:32:56.743Z,99.90
2023-02-19T04:35:58.940Z,99.90
2023-02-19T04:39:01.377Z,99.90
2023-02-19T04:42:04.553Z,99.90
2023-02-19T04:45:07.100Z,99.90
2023-02-19T04:48:09.331Z,99.90
2023-02-19T04:51:12.208Z,99.90
2023-02-19T04:54:14.536Z,99.90
2023-02-19T04:57:16.688Z,99.90
2023-02-19T05:00:20.089Z,99.90
2023-02-19T05:03:22.237Z,99.90
2023-02-19T05:06:24.247Z,99.90
2023-02-19T05:09:26.630Z,99.90
2023-02-19T05:12:31.236Z,99.90
2023-02-19T05:15:33.564Z,99.90
2023-02-19T05:18:35.785Z,99.90
2023-02-19T05:21:39.584Z,99.90
2023-02-19T05:24:41.770Z,99.90
2023-02-19T05:27:43.986Z,99.90
2023-02-19T05:30:51.551Z,99.90
2023-02-19T05:33:56.695Z,99.90
2023-02-19T05:36:58.849Z,99.90
2023-02-19T05:40:01.162Z,99.90
2023-02-19T05:43:04.359Z,99.90
2023-02-19T05:46:07.510Z,99.90
2023-02-19T05:49:09.642Z,99.90
2023-02-19T05:52:11.908Z,99.90
2023-02-19T05:55:14.041Z,99.90
2023-02-19T05:58:16.148Z,99.90
2023-02-19T06:01:23.138Z,99.90
2023-02-19T06:04:25.339Z,99.90
2023-02-19T06:07:27.478Z,99.90
2023-02-19T06:10:29.877Z,99.90
2023-02-19T06:13:32.020Z,99.90
2023-02-19T06:16:34.500Z,99.90
2023-02-19T06:19:36.672Z,99.90
2023-02-19T06:22:39.021Z,99.90
2023-02-19T06:25:41.709Z,99.90
2023-02-19T06:28:44.646Z,99.90
2023-02-19T06:31:46.821Z,99.90
2023-02-19T06:34:49.042Z,99.90
2023-02-19T06:37:51.126Z,99.90
2023-02-19T06:40:53.389Z,99.90
2023-02-19T06:44:00.172Z,99.90
2023-02-19T06:47:02.381Z,99.90
2023-02-19T06:50:04.690Z,99.90
2023-02-19T06:53:06.963Z,99.90
2023-02-19T06:56:23.497Z,99.90
2023-02-19T06:59:26.212Z,99.90
2023-02-19T07:02:28.825Z,99.90
2023-02-19T07:05:30.943Z,99.90
2023-02-19T07:08:33.250Z,99.90
2023-02-19T07:11:38.969Z,99.90
2023-02-19T07:14:41.501Z,99.90
2023-02-19T07:17:43.660Z,99.90
2023-02-19T07:20:46.770Z,99.90
2023-02-19T07:23:48.905Z,99.90
2023-02-19T07:26:50.984Z,99.90
2023-02-19T07:29:53.174Z,99.90
2023-02-19T07:32:55.284Z,99.90
2023-02-19T07:35:57.675Z,99.90
2023-02-19T07:39:00.315Z,99.90
2023-02-19T07:42:02.453Z,99.90
2023-02-19T07:45:04.864Z,99.90
2023-02-19T07:48:07.176Z,99.90
2023-02-19T07:51:13.976Z,99.90
2023-02-19T07:54:16.240Z,99.90
2023-02-19T07:57:18.383Z,99.90
2023-02-19T08:00:23.054Z,99.90
2023-02-19T08:03:25.189Z,99.90
2023-02-19T08:06:27.418Z,99.90
2023-02-19T08:09:29.655Z,99.90
2023-02-19T08:12:50.154Z,99.90
2023-02-19T08:15:52.225Z,99.90
2023-02-19T08:18:54.503Z,99.90
2023-02-19T08:21:56.692Z,99.90
2023-02-19T08:24:58.787Z,99.90
2023-02-19T08:28:01.411Z,99.90
2023-02-19T08:31:07.099Z,99.90
2023-02-19T08:34:09.395Z,99.90
2023-02-19T08:37:11.456Z,99.90
2023-02-19T08:40:14.898Z,99.90
2023-02-19T08:43:19.150Z,99.90
2023-02-19T08:46:22.755Z,99.90
2023-02-19T08:49:28.137Z,99.90
2023-02-19T08:52:30.306Z,99.90
2023-02-19T08:55:33.165Z,99.90
2023-02-19T08:58:36.210Z,99.90
2023-02-19T09:01:38.397Z,99.90
2023-02-19T09:04:41.738Z,99.90
2023-02-19T09:07:44.156Z,99.90
2023-02-19T09:10:56.806Z,99.90
2023-02-19T09:13:58.935Z,99.90
2023-02-19T09:17:02.014Z,99.90
2023-02-19T09:20:04.521Z,99.90
2023-02-19T09:23:06.779Z,99.90
2023-02-19T09:26:11.444Z,99.90
2023-02-19T09:29:14.815Z,99.90
2023-02-19T09:32:19.097Z,99.90
2023-02-19T09:35:21.462Z,99.90
2023-02-19T09:38:23.542Z,99.90
2023-02-19T09:41:35.994Z,99.90
2023-02-19T09:44:41.221Z,99.90
2023-02-19T09:47:43.609Z,99.90
2023-02-19T09:50:48.758Z,99.90
2023-02-19T09:53:52.535Z,99.80
2023-02-19T09:56:57.078Z,99.90
2023-02-19T10:00:02.541Z,99.90
2023-02-19T10:03:11.651Z,99.30
2023-02-19T10:06:29.813Z,99.40
2023-02-19T10:09:32.699Z,99.60
2023-02-19T10:12:35.557Z,98.70
2023-02-19T10:15:50.884Z,97.50
2023-02-19T10:18:53.981Z,97.00
2023-02-19T10:21:56.898Z,96.10
2023-02-19T10:24:59.799Z,96.80
2023-02-19T10:28:03.120Z,94.70
2023-02-19T10:31:16.037Z,93.20
2023-02-19T10:34:22.249Z,93.30
2023-02-19T10:37:24.519Z,92.50
2023-02-19T10:40:28.883Z,93.50
2023-02-19T10:43:37.141Z,90.90
2023-02-19T10:46:48.339Z,89.20
2023-02-19T10:49:53.107Z,90.60
2023-02-19T10:52:59.971Z,90.10
2023-02-19T10:56:09.209Z,85.70
2023-02-19T10:59:23.141Z,83.90
2023-02-19T11:02:27.132Z,88.30
2023-02-19T11:05:29.723Z,81.60
2023-02-19T11:08:44.706Z,82.00
2023-02-19T11:11:52.460Z,77.40
2023-02-19T11:14:56.254Z,77.00
2023-02-19T11:18:08.299Z,79.80
2023-02-19T11:21:29.057Z,77.60
2023-02-19T11:24:38.111Z,68.80
2023-02-19T11:27:57.383Z,67.10
2023-02-19T11:31:28.943Z,65.10
2023-02-19T11:34:31.208Z,67.20
2023-02-19T11:37:33.799Z,68.20
2023-02-19T11:40:55.561Z,63.90
2023-02-19T11:44:16.698Z,58.50
2023-02-19T11:47:40.715Z,56.50
2023-02-19T11:51:12.916Z,55.80
2023-02-19T11:54:37.056Z,54.80
2023-02-19T11:58:15.511Z,54.90
2023-02-19T12:01:20.937Z,52.00
2023-02-19T12:04:36.798Z,50.60
2023-02-19T12:07:45.928Z,51.80
2023-02-19T12:11:00.646Z,49.10
2023-02-19T12:14:14.855Z,47.40
2023-02-19T12:17:33.850Z,50.30
2023-02-19T12:21:05.622Z,49.60
2023-02-19T12:24:29.455Z,49.80
2023-02-19T12:27:56.432Z,48.20
2023-02-19T12:31:39.014Z,45.40
2023-02-19T12:34:50.893Z,47.90
2023-02-19T12:38:12.062Z,47.40
2023-02-19T12:41:27.147Z,46.70
2023-02-19T12:44:52.196Z,47.00
2023-02-19T12:48:07.339Z,47.60
2023-02-19T12:51:22.972Z,44.50
2023-02-19T12:54:30.848Z,42.90
2023-02-19T12:57:38.460Z,44.50
2023-02-19T13:00:53.266Z,45.50
2023-02-19T13:04:18.460Z,46.40
2023-02-19T13:07:57.776Z,47.00
2023-02-19T13:11:15.243Z,50.00
2023-02-19T13:14:40.578Z,47.20
2023-02-19T13:17:53.002Z,49.40
2023-02-19T13:20:56.955Z,50.30
2023-02-19T13:24:03.851Z,51.60
2023-02-19T13:27:34.888Z,51.80
2023-02-19T13:31:01.252Z,47.60
2023-02-19T13:34:22.564Z,47.00
2023-02-19T13:37:26.363Z,45.00
2023-02-19T13:40:39.466Z,46.60
2023-02-19T13:43:43.927Z,45.70
2023-02-19T13:46:49.212Z,45.40
2023-02-19T13:49:52.346Z,46.50
2023-02-19T13:52:57.674Z,47.00
2023-02-19T13:56:01.649Z,45.00
2023-02-19T13:59:34.842Z,43.50
2023-02-19T14:02:37.604Z,43.40
2023-02-19T14:06:10.200Z,41.30
2023-02-19T14:09:44.425Z,40.90
2023-02-19T14:12:47.574Z,42.20
2023-02-19T14:15:51.439Z,40.30
2023-02-19T14:18:56.568Z,39.60
2023-02-19T14:22:00.003Z,40.60
2023-02-19T14:25:10.281Z,40.10
2023-02-19T14:28:37.118Z,38.40
2023-02-19T14:31:41.103Z,40.60
2023-02-19T14:34:46.150Z,38.80
2023-02-19T14:37:51.321Z,40.20
2023-02-19T14:40:55.982Z,39.40
2023-02-19T14:44:04.118Z,39.00
2023-02-19T14:47:14.283Z,39.90
2023-02-19T14:50:30.237Z,42.00
2023-02-19T14:53:39.581Z,40.50
2023-02-19T14:56:49.130Z,40.90
2023-02-19T15:00:00.855Z,40.20
2023-02-19T15:03:05.154Z,39.70
2023-02-19T15:06:16.918Z,40.20
2023-02-19T15:09:22.527Z,40.70
2023-02-19T15:12:29.436Z,39.40
2023-02-19T15:15:41.302Z,39.70
2023-02-19T15:18:48.119Z,39.40
2023-02-19T15:21:51.897Z,40.40
2023-02-19T15:24:56.234Z,40.60
2023-02-19T15:28:29.833Z,40.40
2023-02-19T15:31:32.953Z,41.80
2023-02-19T15:34:36.398Z,41.00
2023-02-19T15:37:42.403Z,41.70
2023-02-19T15:40:50.620Z,41.30
2023-02-19T15:44:06.945Z,42.50
2023-02-19T15:47:24.428Z,43.20
2023-02-19T15:50:36.427Z,43.10
2023-02-19T15:53:54.686Z,44.80
2023-02-19T15:57:04.413Z,47.30
2023-02-19T16:00:37.369Z,50.20
2023-02-19T16:03:41.229Z,51.10
2023-02-19T16:06:54.988Z,53.50
2023-02-19T16:10:24.839Z,54.90
2023-02-19T16:13:30.584Z,54.60
2023-02-19T16:16:39.687Z,66.20
2023-02-19T16:20:01.390Z,69.10
2023-02-19T16:23:12.568Z,70.70
2023-02-19T16:26:19.402Z,75.60
2023-02-19T16:29:31.313Z,79.60
2023-02-19T16:32:35.068Z,90.10
2023-02-19T16:35:40.614Z,96.10
2023-02-19T16:39:10.381Z,99.90
2023-02-19T16:42:15.194Z,99.90
2023-02-19T16:45:19.447Z,99.90
2023-02-19T16:48:24.245Z,99.90
2023-02-19T16:51:28.681Z,99.90
2023-02-19T16:54:32.064Z,99.90
2023-02-19T16:57:34.996Z,99.90
2023-02-19T17:00:41.001Z,99.90
2023-02-19T17:03:45.955Z,99.90
2023-02-19T17:06:49.803Z,99.90
2023-02-19T17:09:53.724Z,99.90
2023-02-19T17:12:58.403Z,99.90
2023-02-19T17:16:02.163Z,99.90
2023-02-19T17:19:12.142Z,99.90
2023-02-19T17:22:18.369Z,99.90
2023-02-19T17:25:22.311Z,99.90
2023-02-19T17:28:27.433Z,99.90
2023-02-19T17:31:31.316Z,99.90
2023-02-19T17:34:35.064Z,99.90
2023-02-19T17:37:38.536Z,99.90
2023-02-19T17:40:45.327Z,99.90
2023-02-19T17:43:51.039Z,99.90
2023-02-19T17:46:56.714Z,99.90
2023-02-19T17:50:01.932Z,99.90
2023-02-19T17:53:06.695Z,99.90
2023-02-19T17:56:14.016Z,99.90
2023-02-19T17:59:18.391Z,99.90
2023-02-19T18:02:22.334Z,99.90
2023-02-19T18:05:28.724Z,99.90
2023-02-19T18:08:33.910Z,99.90
2023-02-19T18:11:37.468Z,99.90
2023-02-19T18:14:42.046Z,99.90
2023-02-19T18:17:46.066Z,99.90
2023-02-19T18:20:54.168Z,99.90
2023-02-19T18:23:58.380Z,99.90
2023-02-19T18:27:01.857Z,99.90
2023-02-19T18:30:07.237Z,99.90
2023-02-19T18:33:13.738Z,99.90
2023-02-19T18:36:18.504Z,99.90
2023-02-19T18:39:22.594Z,99.90
2023-02-19T18:42:27.489Z,99.90
2023-02-19T18:45:36.221Z,99.90
2023-02-19T18:48:40.532Z,99.90
2023-02-19T18:51:46.471Z,99.90
2023-02-19T18:54:55.750Z,99.90
2023-02-19T18:57:59.772Z,99.90
2023-02-19T19:01:04.219Z,99.90
2023-02-19T19:04:09.858Z,99.90
2023-02-19T19:07:14.984Z,99.90
2023-02-19T19:10:19.629Z,99.90
2023-02-19T19:13:24.893Z,99.90
2023-02-19T19:16:30.429Z,99.90
2023-02-19T19:19:34.477Z,99.90
2023-02-19T19:22:39.067Z,99.90
2023-02-19T19:25:44.625Z,99.90
2023-02-19T19:28:48.912Z,99.90
2023-02-19T19:31:52.968Z,99.90
2023-02-19T19:34:58.383Z,99.90
2023-02-19T19:38:01.623Z,99.90
2023-02-19T19:41:05.892Z,99.90
2023-02-19T19:44:10.492Z,99.90
2023-02-19T19:47:15.574Z,99.90
2023-02-19T19:50:20.617Z,99.90
2023-02-19T19:53:27.249Z,99.90
2023-02-19T19:56:31.176Z,99.90
2023-02-19T19:59:37.196Z,99.90
2023-02-19T20:02:41.822Z,99.90
2023-02-19T20:05:47.423Z,99.90
2023-02-19T20:08:53.158Z,99.90
2023-02-19T20:11:56.945Z,99.90
2023-02-19T20:15:00.604Z,99.90
2023-02-19T20:18:07.135Z,99.90
2023-02-19T20:21:13.284Z,99.90
2023-02-19T20:24:19.457Z,99.90
2023-02-19T20:27:23.963Z,99.90
2023-02-19T20:30:27.614Z,99.90
2023-02-19T20:33:31.794Z,99.90
2023-02-19T20:36:49.527Z,99.90
2023-02-19T20:39:53.367Z,99.90
2023-02-19T20:42:57.819Z,99.90
2023-02-19T20:46:02.831Z,99.90
2023-02-19T20:49:15.063Z,99.90
2023-02-19T20:52:23.005Z,99.90
2023-02-19T20:55:26.695Z,99.90
2023-02-19T20:58:30.382Z,99.90
2023-02-19T21:01:34.346Z,99.90
2023-02-19T21:04:40.124Z,99.90
2023-02-19T21:07:43.402Z,99.90
2023-02-19T21:11:06.000Z,99.90
2023-02-19T21:14:10.093Z,99.90
2023-02-19T21:17:15.067Z,99.90
2023-02-19T21:20:19.196Z,99.90
2023-02-19T21:23:22.578Z,99.90
2023-02-19T21:26:33.437Z,99.90
2023-02-19T21:29:37.112Z,99.90
2023-02-19T21:32:40.004Z,99.90
2023-02-19T21:35:43.591Z,99.90
2023-02-19T21:38:47.837Z,99.90
2023-02-19T21:41:52.081Z,99.90
2023-02-19T21:44:54.583Z,99.90
2023-02-19T21:47:57.396Z,99.90
2023-02-19T21:50:59.777Z,99.90
2023-02-19T21:54:03.530Z,99.90
2023-02-19T21:57:06.622Z,99.90
2023-02-19T22:00:11.068Z,99.90
2023-02-19T22:03:16.626Z,99.90
2023-02-19T22:06:22.550Z,99.90
2023-02-19T22:09:24.994Z,99.90
2023-02-19T22:12:27.199Z,99.90
2023-02-19T22:15:29.268Z,99.90
2023-02-19T22:18:31.390Z,99.90
2023-02-19T22:21:33.899Z,99.90
2023-02-19T22:24:36.148Z,99.90
2023-02-19T22:27:38.236Z,99.90
2023-02-19T22:30:41.566Z,99.90
2023-02-19T22:33:44.097Z,99.90
2023-02-19T22:36:46.269Z,99.90
2023-02-19T22:39:48.549Z,99.90
2023-02-19T22:42:50.705Z,99.90
2023-02-19T22:45:52.884Z,99.90
2023-02-19T22:48:55.322Z,99.90
2023-02-19T22:52:04.291Z,99.90
2023-02-19T22:55:06.458Z,99.90
2023-02-19T22:58:08.697Z,99.90
2023-02-19T23:01:12.977Z,99.90
2023-02-19T23:04:15.746Z,99.90
2023-02-19T23:07:17.936Z,99.90
2023-02-19T23:10:20.153Z,99.90
2023-02-19T23:13:22.294Z,99.90
2023-02-19T23:16:24.645Z,99.90
2023-02-19T23:19:27.343Z,99.90
2023-02-19T23:22:29.858Z,99.90
2023-02-19T23:25:31.956Z,99.90
2023-02-19T23:28:33.978Z,99.90
2023-02-19T23:31:36.337Z,99.90
2023-02-19T23:34:38.599Z,99.90
2023-02-19T23:37:40.669Z,99.90
2023-02-19T23:40:43.273Z,99.90
2023-02-19T23:43:45.780Z,99.90
2023-02-19T23:46:48.660Z,99.90
2023-02-19T23:49:50.753Z,99.90
2023-02-19T23:52:53.057Z,99.90
2023-02-19T23:55:55.466Z,99.90
2023-02-19T23:58:57.819Z,99.90
